sensor_id;sensor_type;location;lat;lon;timestamp;pressure;altitude;pressure_sealevel;temperature;humidity
84781;BME280;75011;50.086;19.886;2024-02-28T00:00:15;98785.44;;;10.34;78.51
84781;BME280;75011;50.086;19.886;2024-02-28T00:03:16;98786.41;;;10.23;78.78
84781;BME280;75011;50.086;19.886;2024-02-28T00:06:16;98789.59;;;10.20;79.04
84781;BME280;75011;50.086;19.886;2024-02-28T00:09:18;98776.03;;;10.10;79.29
84781;BME280;75011;50.086;19.886;2024-02-28T00:12:19;98789.22;;;10.11;80.00
84781;BME280;75011;50.086;19.886;2024-02-28T00:15:19;98785.41;;;10.07;80.32
84781;BME280;75011;50.086;19.886;2024-02-28T00:18:20;98792.09;;;10.05;79.66
84781;BME280;75011;50.086;19.886;2024-02-28T00:21:20;98805.25;;;10.01;80.05
84781;BME280;75011;50.086;19.886;2024-02-28T00:24:22;98811.16;;;10.03;80.58
84781;BME280;75011;50.086;19.886;2024-02-28T00:27:22;98810.94;;;10.10;80.37
84781;BME280;75011;50.086;19.886;2024-02-28T00:30:23;98803.16;;;10.08;79.65
84781;BME280;75011;50.086;19.886;2024-02-28T00:33:23;98803.97;;;10.09;80.65
84781;BME280;75011;50.086;19.886;2024-02-28T00:36:24;98805.56;;;10.10;80.35
84781;BME280;75011;50.086;19.886;2024-02-28T00:39:26;98814.41;;;10.05;80.19
84781;BME280;75011;50.086;19.886;2024-02-28T00:42:26;98801.72;;;10.01;81.00
84781;BME280;75011;50.086;19.886;2024-02-28T00:45:27;98812.72;;;9.99;80.83
84781;BME280;75011;50.086;19.886;2024-02-28T00:48:27;98816.22;;;10.00;80.20
84781;BME280;75011;50.086;19.886;2024-02-28T00:51:27;98802.78;;;10.00;80.61
84781;BME280;75011;50.086;19.886;2024-02-28T00:54:29;98805.41;;;9.95;80.82
84781;BME280;75011;50.086;19.886;2024-02-28T00:57:31;98815.00;;;9.86;80.54
84781;BME280;75011;50.086;19.886;2024-02-28T01:00:32;98812.97;;;9.76;81.76
84781;BME280;75011;50.086;19.886;2024-02-28T01:03:32;98799.81;;;9.75;81.88
84781;BME280;75011;50.086;19.886;2024-02-28T01:06:33;98813.50;;;9.73;81.99
84781;BME280;75011;50.086;19.886;2024-02-28T01:09:34;98816.69;;;9.70;82.31
84781;BME280;75011;50.086;19.886;2024-02-28T01:12:35;98822.53;;;9.67;81.52
84781;BME280;75011;50.086;19.886;2024-02-28T01:15:35;98823.53;;;9.61;81.97
84781;BME280;75011;50.086;19.886;2024-02-28T01:18:36;98817.56;;;9.54;82.28
84781;BME280;75011;50.086;19.886;2024-02-28T01:21:38;98822.03;;;9.48;82.19
84781;BME280;75011;50.086;19.886;2024-02-28T01:24:40;98817.41;;;9.44;82.48
84781;BME280;75011;50.086;19.886;2024-02-28T01:27:40;98822.47;;;9.40;82.21
84781;BME280;75011;50.086;19.886;2024-02-28T01:30:41;98823.53;;;9.39;82.89
84781;BME280;75011;50.086;19.886;2024-02-28T01:33:41;98817.63;;;9.37;82.86
84781;BME280;75011;50.086;19.886;2024-02-28T01:36:42;98823.06;;;9.42;82.57
84781;BME280;75011;50.086;19.886;2024-02-28T01:39:44;98828.41;;;9.42;83.29
84781;BME280;75011;50.086;19.886;2024-02-28T01:42:44;98827.34;;;9.43;83.19
84781;BME280;75011;50.086;19.886;2024-02-28T01:45:44;98832.69;;;9.43;82.29
84781;BME280;75011;50.086;19.886;2024-02-28T01:48:46;98823.59;;;9.44;82.90
84781;BME280;75011;50.086;19.886;2024-02-28T01:51:46;98816.88;;;9.42;82.70
84781;BME280;75011;50.086;19.886;2024-02-28T01:54:48;98816.88;;;9.42;82.58
84781;BME280;75011;50.086;19.886;2024-02-28T01:57:49;98816.88;;;9.42;82.91
84781;BME280;75011;50.086;19.886;2024-02-28T02:00:49;98815.28;;;9.46;82.82
84781;BME280;75011;50.086;19.886;2024-02-28T02:03:50;98812.63;;;9.46;82.73
84781;BME280;75011;50.086;19.886;2024-02-28T02:06:51;98823.13;;;9.47;82.33
84781;BME280;75011;50.086;19.886;2024-02-28T02:09:52;98812.38;;;9.47;82.85
84781;BME280;75011;50.086;19.886;2024-02-28T02:12:53;98808.00;;;9.41;83.46
84781;BME280;75011;50.086;19.886;2024-02-28T02:15:53;98813.56;;;9.35;82.58
84781;BME280;75011;50.086;19.886;2024-02-28T02:18:54;98807.94;;;9.36;82.85
84781;BME280;75011;50.086;19.886;2024-02-28T02:21:58;98807.44;;;9.39;83.54
84781;BME280;75011;50.086;19.886;2024-02-28T02:25:02;98800.78;;;9.42;83.68
84781;BME280;75011;50.086;19.886;2024-02-28T02:28:03;98801.66;;;9.47;82.40
84781;BME280;75011;50.086;19.886;2024-02-28T02:31:04;98809.75;;;9.53;82.83
84781;BME280;75011;50.086;19.886;2024-02-28T02:34:04;98803.88;;;9.56;82.63
84781;BME280;75011;50.086;19.886;2024-02-28T02:37:05;98807.22;;;9.63;82.92
84781;BME280;75011;50.086;19.886;2024-02-28T02:40:07;98805.06;;;9.65;82.05
84781;BME280;75011;50.086;19.886;2024-02-28T02:43:08;98805.63;;;9.67;82.78
84781;BME280;75011;50.086;19.886;2024-02-28T02:46:08;98801.03;;;9.62;82.01
84781;BME280;75011;50.086;19.886;2024-02-28T02:49:09;98803.72;;;9.62;82.04
84781;BME280;75011;50.086;19.886;2024-02-28T02:52:09;98813.13;;;9.65;82.96
84781;BME280;75011;50.086;19.886;2024-02-28T02:55:12;98813.69;;;9.67;82.15
84781;BME280;75011;50.086;19.886;2024-02-28T02:58:12;98813.69;;;9.67;81.88
84781;BME280;75011;50.086;19.886;2024-02-28T03:01:13;98807.69;;;9.60;81.91
84781;BME280;75011;50.086;19.886;2024-02-28T03:04:13;98807.38;;;9.56;83.15
84781;BME280;75011;50.086;19.886;2024-02-28T03:07:14;98812.25;;;9.59;81.98
84781;BME280;75011;50.086;19.886;2024-02-28T03:10:16;98810.25;;;9.49;82.91
84781;BME280;75011;50.086;19.886;2024-02-28T03:13:16;98812.31;;;9.42;82.94
84781;BME280;75011;50.086;19.886;2024-02-28T03:16:17;98811.72;;;9.40;82.99
84781;BME280;75011;50.086;19.886;2024-02-28T03:19:18;98811.94;;;9.34;82.64
84781;BME280;75011;50.086;19.886;2024-02-28T03:22:18;98820.78;;;9.34;83.70
84781;BME280;75011;50.086;19.886;2024-02-28T03:25:20;98817.03;;;9.35;82.95
84781;BME280;75011;50.086;19.886;2024-02-28T03:28:20;98814.06;;;9.32;83.66
84781;BME280;75011;50.086;19.886;2024-02-28T03:31:21;98812.41;;;9.31;83.35
84781;BME280;75011;50.086;19.886;2024-02-28T03:34:21;98815.91;;;9.31;83.62
84781;BME280;75011;50.086;19.886;2024-02-28T03:37:22;98812.69;;;9.29;82.83
84781;BME280;75011;50.086;19.886;2024-02-28T03:40:24;98817.56;;;9.32;83.29
84781;BME280;75011;50.086;19.886;2024-02-28T03:43:24;98820.22;;;9.32;83.30
84781;BME280;75011;50.086;19.886;2024-02-28T03:46:25;98822.59;;;9.29;83.29
84781;BME280;75011;50.086;19.886;2024-02-28T03:49:25;98832.56;;;9.33;82.41
84781;BME280;75011;50.086;19.886;2024-02-28T03:52:26;98820.94;;;9.28;82.77
84781;BME280;75011;50.086;19.886;2024-02-28T03:55:27;98831.75;;;9.33;82.64
84781;BME280;75011;50.086;19.886;2024-02-28T03:58:28;98835.00;;;9.35;82.80
84781;BME280;75011;50.086;19.886;2024-02-28T04:01:29;98838.19;;;9.32;83.16
84781;BME280;75011;50.086;19.886;2024-02-28T04:04:29;98842.47;;;9.33;82.51
84781;BME280;75011;50.086;19.886;2024-02-28T04:07:30;98847.34;;;9.36;83.04
84781;BME280;75011;50.086;19.886;2024-02-28T04:10:31;98849.81;;;9.37;82.95
84781;BME280;75011;50.086;19.886;2024-02-28T04:13:32;98851.41;;;9.38;82.48
84781;BME280;75011;50.086;19.886;2024-02-28T04:16:32;98846.84;;;9.39;83.36
84781;BME280;75011;50.086;19.886;2024-02-28T04:19:33;98848.16;;;9.36;82.34
84781;BME280;75011;50.086;19.886;2024-02-28T04:22:34;98851.19;;;9.40;83.45
84781;BME280;75011;50.086;19.886;2024-02-28T04:25:35;98845.81;;;9.40;83.17
84781;BME280;75011;50.086;19.886;2024-02-28T04:28:36;98843.06;;;9.35;83.56
84781;BME280;75011;50.086;19.886;2024-02-28T04:31:38;98861.00;;;9.34;83.68
84781;BME280;75011;50.086;19.886;2024-02-28T04:34:38;98862.63;;;9.35;82.65
84781;BME280;75011;50.086;19.886;2024-02-28T04:37:39;98852.97;;;9.34;82.85
84781;BME280;75011;50.086;19.886;2024-02-28T04:40:40;98856.75;;;9.38;83.37
84781;BME280;75011;50.086;19.886;2024-02-28T04:43:41;98855.38;;;9.36;83.01
84781;BME280;75011;50.086;19.886;2024-02-28T04:46:41;98854.50;;;9.30;83.55
84781;BME280;75011;50.086;19.886;2024-02-28T04:49:42;98854.50;;;9.30;83.09
84781;BME280;75011;50.086;19.886;2024-02-28T04:52:42;98863.13;;;9.32;83.24
84781;BME280;75011;50.086;19.886;2024-02-28T04:55:44;98854.00;;;9.33;83.44
84781;BME280;75011;50.086;19.886;2024-02-28T04:58:45;98850.28;;;9.34;83.86
84781;BME280;75011;50.086;19.886;2024-02-28T05:01:45;98853.53;;;9.36;83.66
84781;BME280;75011;50.086;19.886;2024-02-28T05:04:46;98856.22;;;9.36;83.06
84781;BME280;75011;50.086;19.886;2024-02-28T05:07:46;98855.09;;;9.32;83.58
84781;BME280;75011;50.086;19.886;2024-02-28T05:10:49;98857.38;;;9.24;83.87
84781;BME280;75011;50.086;19.886;2024-02-28T05:13:50;98856.00;;;9.21;83.46
84781;BME280;75011;50.086;19.886;2024-02-28T05:16:50;98857.63;;;9.22;83.46
84781;BME280;75011;50.086;19.886;2024-02-28T05:19:51;98858.13;;;9.19;83.36
84781;BME280;75011;50.086;19.886;2024-02-28T05:22:51;98854.84;;;9.17;83.92
84781;BME280;75011;50.086;19.886;2024-02-28T05:25:53;98853.25;;;9.16;83.44
84781;BME280;75011;50.086;19.886;2024-02-28T05:28:54;98858.59;;;9.16;83.35
84781;BME280;75011;50.086;19.886;2024-02-28T05:31:54;98852.75;;;9.19;83.70
84781;BME280;75011;50.086;19.886;2024-02-28T05:34:54;98860.06;;;9.24;83.77
84781;BME280;75011;50.086;19.886;2024-02-28T05:37:55;98859.00;;;9.25;83.53
84781;BME280;75011;50.086;19.886;2024-02-28T05:40:57;98856.63;;;9.28;83.43
84781;BME280;75011;50.086;19.886;2024-02-28T05:43:57;98867.19;;;9.35;82.71
84781;BME280;75011;50.086;19.886;2024-02-28T05:46:58;98868.56;;;9.37;83.46
84781;BME280;75011;50.086;19.886;2024-02-28T05:49:58;98869.94;;;9.40;82.61
84781;BME280;75011;50.086;19.886;2024-02-28T05:52:59;98875.38;;;9.45;82.93
84781;BME280;75011;50.086;19.886;2024-02-28T05:56:01;98883.16;;;9.46;82.40
84781;BME280;75011;50.086;19.886;2024-02-28T05:59:01;98894.16;;;9.45;82.40
84781;BME280;75011;50.086;19.886;2024-02-28T06:02:02;98904.00;;;9.39;82.73
84781;BME280;75011;50.086;19.886;2024-02-28T06:05:02;98899.69;;;9.38;82.49
84781;BME280;75011;50.086;19.886;2024-02-28T06:08:03;98909.34;;;9.39;82.90
84781;BME280;75011;50.086;19.886;2024-02-28T06:11:05;98902.34;;;9.38;82.98
84781;BME280;75011;50.086;19.886;2024-02-28T06:14:06;98909.09;;;9.41;82.09
84781;BME280;75011;50.086;19.886;2024-02-28T06:17:07;98907.72;;;9.38;82.08
84781;BME280;75011;50.086;19.886;2024-02-28T06:20:08;98918.38;;;9.33;82.84
84781;BME280;75011;50.086;19.886;2024-02-28T06:23:08;98916.44;;;9.29;82.95
84781;BME280;75011;50.086;19.886;2024-02-28T06:26:10;98913.34;;;9.20;83.49
84781;BME280;75011;50.086;19.886;2024-02-28T06:29:10;98923.50;;;9.18;83.30
84781;BME280;75011;50.086;19.886;2024-02-28T06:32:11;98909.06;;;9.19;84.29
84781;BME280;75011;50.086;19.886;2024-02-28T06:35:11;98912.19;;;9.33;83.18
84781;BME280;75011;50.086;19.886;2024-02-28T06:38:12;98912.66;;;9.46;83.90
84781;BME280;75011;50.086;19.886;2024-02-28T06:41:14;98916.81;;;9.54;84.08
84781;BME280;75011;50.086;19.886;2024-02-28T06:44:14;98919.63;;;9.64;83.63
84781;BME280;75011;50.086;19.886;2024-02-28T06:47:15;98924.38;;;9.79;82.84
84781;BME280;75011;50.086;19.886;2024-02-28T06:50:15;98934.03;;;9.96;83.42
84781;BME280;75011;50.086;19.886;2024-02-28T06:53:16;98938.88;;;10.16;82.70
84781;BME280;75011;50.086;19.886;2024-02-28T06:56:18;98932.09;;;10.35;82.12
84781;BME280;75011;50.086;19.886;2024-02-28T06:59:18;98939.25;;;10.51;81.47
84781;BME280;75011;50.086;19.886;2024-02-28T07:02:19;98937.19;;;10.58;80.47
84781;BME280;75011;50.086;19.886;2024-02-28T07:05:19;98942.38;;;10.65;80.50
84781;BME280;75011;50.086;19.886;2024-02-28T07:08:20;98943.28;;;10.76;80.21
84781;BME280;75011;50.086;19.886;2024-02-28T07:11:22;98936.94;;;10.87;79.74
84781;BME280;75011;50.086;19.886;2024-02-28T07:14:22;98940.53;;;10.97;79.71
84781;BME280;75011;50.086;19.886;2024-02-28T07:17:23;98945.78;;;11.14;79.66
84781;BME280;75011;50.086;19.886;2024-02-28T07:20:24;98951.03;;;11.30;78.75
84781;BME280;75011;50.086;19.886;2024-02-28T07:23:24;98945.44;;;11.42;78.60
84781;BME280;75011;50.086;19.886;2024-02-28T07:26:26;98943.94;;;11.56;77.95
84781;BME280;75011;50.086;19.886;2024-02-28T07:29:27;98941.00;;;11.63;77.80
84781;BME280;75011;50.086;19.886;2024-02-28T07:32:27;98939.78;;;11.75;77.75
84781;BME280;75011;50.086;19.886;2024-02-28T07:35:27;98949.03;;;11.89;77.47
84781;BME280;75011;50.086;19.886;2024-02-28T07:38:28;98954.16;;;11.96;77.00
84781;BME280;75011;50.086;19.886;2024-02-28T07:41:30;98944.19;;;11.96;77.40
84781;BME280;75011;50.086;19.886;2024-02-28T07:44:30;98950.78;;;12.21;76.57
84781;BME280;75011;50.086;19.886;2024-02-28T07:47:31;98952.75;;;12.40;75.99
84781;BME280;75011;50.086;19.886;2024-02-28T07:50:31;98954.94;;;12.53;75.49
84781;BME280;75011;50.086;19.886;2024-02-28T07:53:32;98953.34;;;12.57;74.90
84781;BME280;75011;50.086;19.886;2024-02-28T07:56:33;98958.47;;;12.59;75.15
84781;BME280;75011;50.086;19.886;2024-02-28T07:59:38;98953.88;;;12.54;75.13
84781;BME280;75011;50.086;19.886;2024-02-28T08:02:39;98955.50;;;12.55;74.88
84781;BME280;75011;50.086;19.886;2024-02-28T08:05:40;98955.50;;;12.60;74.41
84781;BME280;75011;50.086;19.886;2024-02-28T08:08:40;98950.66;;;12.68;74.56
84781;BME280;75011;50.086;19.886;2024-02-28T08:11:45;98943.91;;;12.60;74.61
84781;BME280;75011;50.086;19.886;2024-02-28T08:14:45;98943.38;;;12.68;74.15
84781;BME280;75011;50.086;19.886;2024-02-28T08:17:46;98943.94;;;12.75;73.90
84781;BME280;75011;50.086;19.886;2024-02-28T08:20:46;98943.94;;;12.80;73.13
84781;BME280;75011;50.086;19.886;2024-02-28T08:23:47;98953.66;;;12.76;73.35
84781;BME280;75011;50.086;19.886;2024-02-28T08:26:48;98947.72;;;12.79;72.86
84781;BME280;75011;50.086;19.886;2024-02-28T08:29:49;98953.13;;;12.89;73.12
84781;BME280;75011;50.086;19.886;2024-02-28T08:32:49;98957.75;;;13.04;72.18
84781;BME280;75011;50.086;19.886;2024-02-28T08:35:50;98955.34;;;13.12;71.70
84781;BME280;75011;50.086;19.886;2024-02-28T08:38:50;98966.16;;;13.17;71.95
84781;BME280;75011;50.086;19.886;2024-02-28T08:41:52;98961.81;;;13.27;71.73
84781;BME280;75011;50.086;19.886;2024-02-28T08:44:53;98965.06;;;13.23;71.29
84781;BME280;75011;50.086;19.886;2024-02-28T08:47:54;98970.75;;;13.22;71.90
84781;BME280;75011;50.086;19.886;2024-02-28T08:50:54;98979.13;;;13.20;71.88
84781;BME280;75011;50.086;19.886;2024-02-28T08:53:55;98973.94;;;13.04;72.37
84781;BME280;75011;50.086;19.886;2024-02-28T08:56:56;98974.25;;;13.07;71.32
84781;BME280;75011;50.086;19.886;2024-02-28T08:59:57;98972.63;;;13.21;71.41
84781;BME280;75011;50.086;19.886;2024-02-28T09:02:58;98965.88;;;13.29;70.20
84781;BME280;75011;50.086;19.886;2024-02-28T09:05:59;98969.91;;;13.16;71.08
84781;BME280;75011;50.086;19.886;2024-02-28T09:08:59;98981.81;;;13.15;71.99
84781;BME280;75011;50.086;19.886;2024-02-28T09:12:01;98976.94;;;13.07;71.61
84781;BME280;75011;50.086;19.886;2024-02-28T09:15:02;98978.28;;;13.15;70.85
84781;BME280;75011;50.086;19.886;2024-02-28T09:18:02;98975.31;;;13.27;70.88
84781;BME280;75011;50.086;19.886;2024-02-28T09:21:03;98974.78;;;13.35;71.34
84781;BME280;75011;50.086;19.886;2024-02-28T09:24:05;98973.16;;;13.23;71.09
84781;BME280;75011;50.086;19.886;2024-02-28T09:27:07;98982.88;;;13.24;71.28
84781;BME280;75011;50.086;19.886;2024-02-28T09:30:08;98983.16;;;13.38;71.30
84781;BME280;75011;50.086;19.886;2024-02-28T09:33:08;98978.00;;;13.62;70.29
84781;BME280;75011;50.086;19.886;2024-02-28T09:36:09;98979.09;;;13.76;70.72
84781;BME280;75011;50.086;19.886;2024-02-28T09:39:09;98982.81;;;13.95;69.50
84781;BME280;75011;50.086;19.886;2024-02-28T09:42:11;98985.53;;;14.05;68.67
84781;BME280;75011;50.086;19.886;2024-02-28T09:45:12;98980.09;;;14.15;68.46
84781;BME280;75011;50.086;19.886;2024-02-28T09:48:14;98985.16;;;14.27;67.56
84781;BME280;75011;50.086;19.886;2024-02-28T09:51:18;98985.97;;;14.37;67.64
84781;BME280;75011;50.086;19.886;2024-02-28T09:54:18;98997.56;;;14.48;66.91
84781;BME280;75011;50.086;19.886;2024-02-28T09:57:21;98981.53;;;14.57;66.75
84781;BME280;75011;50.086;19.886;2024-02-28T10:00:23;98989.91;;;14.65;66.12
84781;BME280;75011;50.086;19.886;2024-02-28T10:03:25;98993.66;;;14.69;66.52
84781;BME280;75011;50.086;19.886;2024-02-28T10:06:27;98999.88;;;14.70;66.60
84781;BME280;75011;50.086;19.886;2024-02-28T10:09:27;98999.38;;;14.63;66.42
84781;BME280;75011;50.086;19.886;2024-02-28T10:12:29;99006.72;;;14.52;65.76
84781;BME280;75011;50.086;19.886;2024-02-28T10:15:30;98996.44;;;14.54;65.80
84781;BME280;75011;50.086;19.886;2024-02-28T10:18:31;98997.22;;;14.60;65.24
84781;BME280;75011;50.086;19.886;2024-02-28T10:21:34;99005.31;;;14.65;65.18
84781;BME280;75011;50.086;19.886;2024-02-28T10:24:35;99002.31;;;14.76;64.08
84781;BME280;75011;50.086;19.886;2024-02-28T10:27:37;99006.00;;;14.90;62.30
84781;BME280;75011;50.086;19.886;2024-02-28T10:30:39;99005.38;;;15.03;61.63
84781;BME280;75011;50.086;19.886;2024-02-28T10:33:41;99002.34;;;15.15;61.32
84781;BME280;75011;50.086;19.886;2024-02-28T10:36:43;98994.22;;;15.10;61.17
84781;BME280;75011;50.086;19.886;2024-02-28T10:39:44;98998.81;;;15.15;61.90
84781;BME280;75011;50.086;19.886;2024-02-28T10:42:47;98997.09;;;15.29;61.41
84781;BME280;75011;50.086;19.886;2024-02-28T10:45:48;99001.69;;;15.28;61.09
84781;BME280;75011;50.086;19.886;2024-02-28T10:48:50;99004.72;;;15.22;61.23
84781;BME280;75011;50.086;19.886;2024-02-28T10:51:52;99002.81;;;15.22;60.44
84781;BME280;75011;50.086;19.886;2024-02-28T10:54:56;98996.25;;;15.28;60.86
84781;BME280;75011;50.086;19.886;2024-02-28T10:58:02;99006.31;;;15.28;60.88
84781;BME280;75011;50.086;19.886;2024-02-28T11:01:03;99007.91;;;15.29;60.59
84781;BME280;75011;50.086;19.886;2024-02-28T11:04:04;98994.09;;;15.30;60.59
84781;BME280;75011;50.086;19.886;2024-02-28T11:07:05;99006.56;;;15.26;60.88
84781;BME280;75011;50.086;19.886;2024-02-28T11:10:07;99006.53;;;15.31;60.56
84781;BME280;75011;50.086;19.886;2024-02-28T11:13:10;99005.41;;;15.37;60.25
84781;BME280;75011;50.086;19.886;2024-02-28T11:16:31;99000.84;;;15.33;60.53
84781;BME280;75011;50.086;19.886;2024-02-28T11:19:33;99007.06;;;15.33;59.99
84781;BME280;75011;50.086;19.886;2024-02-28T11:22:33;99005.28;;;15.19;60.05
84781;BME280;75011;50.086;19.886;2024-02-28T11:25:34;99004.91;;;15.35;59.71
84781;BME280;75011;50.086;19.886;2024-02-28T11:28:36;99004.47;;;15.57;58.92
84781;BME280;75011;50.086;19.886;2024-02-28T11:31:36;99003.34;;;15.63;58.85
84781;BME280;75011;50.086;19.886;2024-02-28T11:34:37;99000.91;;;15.61;58.96
84781;BME280;75011;50.086;19.886;2024-02-28T11:37:38;99003.66;;;15.56;59.00
84781;BME280;75011;50.086;19.886;2024-02-28T11:40:38;98998.88;;;15.77;58.51
84781;BME280;75011;50.086;19.886;2024-02-28T11:43:40;99011.13;;;15.69;58.45
84781;BME280;75011;50.086;19.886;2024-02-28T11:46:44;99003.72;;;15.80;58.34
84781;BME280;75011;50.086;19.886;2024-02-28T11:49:44;99009.81;;;15.96;57.74
84781;BME280;75011;50.086;19.886;2024-02-28T11:52:45;99002.81;;;15.90;57.60
84781;BME280;75011;50.086;19.886;2024-02-28T11:55:46;99005.97;;;16.02;57.47
84781;BME280;75011;50.086;19.886;2024-02-28T11:58:52;99004.13;;;16.21;56.81
84781;BME280;75011;50.086;19.886;2024-02-28T12:01:52;99010.50;;;16.35;56.09
84781;BME280;75011;50.086;19.886;2024-02-28T12:04:53;99011.06;;;16.32;55.17
84781;BME280;75011;50.086;19.886;2024-02-28T12:07:53;99014.91;;;16.26;54.01
84781;BME280;75011;50.086;19.886;2024-02-28T12:10:54;99004.75;;;16.13;53.57
84781;BME280;75011;50.086;19.886;2024-02-28T12:13:56;98999.72;;;16.01;53.55
84781;BME280;75011;50.086;19.886;2024-02-28T12:16:57;99006.53;;;15.99;53.68
84781;BME280;75011;50.086;19.886;2024-02-28T12:19:59;99008.09;;;16.05;53.72
84781;BME280;75011;50.086;19.886;2024-02-28T12:22:59;99007.06;;;16.01;53.40
84781;BME280;75011;50.086;19.886;2024-02-28T12:26:00;99006.03;;;15.97;53.94
84781;BME280;75011;50.086;19.886;2024-02-28T12:29:02;99007.25;;;15.81;54.50
84781;BME280;75011;50.086;19.886;2024-02-28T12:32:03;99014.13;;;15.68;54.75
84781;BME280;75011;50.086;19.886;2024-02-28T12:35:05;99015.66;;;15.50;55.13
84781;BME280;75011;50.086;19.886;2024-02-28T12:38:05;99009.47;;;15.40;55.26
84781;BME280;75011;50.086;19.886;2024-02-28T12:41:06;99012.72;;;15.37;55.56
84781;BME280;75011;50.086;19.886;2024-02-28T12:44:08;99012.72;;;15.37;55.74
84781;BME280;75011;50.086;19.886;2024-02-28T12:47:09;99007.56;;;15.45;55.58
84781;BME280;75011;50.086;19.886;2024-02-28T12:50:09;99010.22;;;15.50;55.51
84781;BME280;75011;50.086;19.886;2024-02-28T12:53:10;99017.13;;;15.66;55.10
84781;BME280;75011;50.086;19.886;2024-02-28T12:56:11;99019.69;;;15.82;55.01
84781;BME280;75011;50.086;19.886;2024-02-28T12:59:13;99021.88;;;15.80;55.36
84781;BME280;75011;50.086;19.886;2024-02-28T13:02:15;99014.41;;;15.66;55.99
84781;BME280;75011;50.086;19.886;2024-02-28T13:05:16;99015.00;;;15.63;56.15
84781;BME280;75011;50.086;19.886;2024-02-28T13:08:16;99019.56;;;15.68;55.76
84781;BME280;75011;50.086;19.886;2024-02-28T13:11:18;99021.78;;;15.61;55.97
84781;BME280;75011;50.086;19.886;2024-02-28T13:14:20;99025.97;;;15.48;56.79
84781;BME280;75011;50.086;19.886;2024-02-28T13:17:20;99022.09;;;15.54;56.67
84781;BME280;75011;50.086;19.886;2024-02-28T13:20:21;99027.47;;;15.59;56.70
84781;BME280;75011;50.086;19.886;2024-02-28T13:23:21;99026.41;;;15.60;56.99
84781;BME280;75011;50.086;19.886;2024-02-28T13:26:22;99030.75;;;15.56;56.87
84781;BME280;75011;50.086;19.886;2024-02-28T13:29:24;99028.59;;;15.58;56.92
84781;BME280;75011;50.086;19.886;2024-02-28T13:32:24;99029.16;;;15.55;56.99
84781;BME280;75011;50.086;19.886;2024-02-28T13:35:25;99026.75;;;15.49;57.01
84781;BME280;75011;50.086;19.886;2024-02-28T13:38:25;99022.66;;;15.51;57.54
84781;BME280;75011;50.086;19.886;2024-02-28T13:41:26;99031.09;;;15.50;57.59
84781;BME280;75011;50.086;19.886;2024-02-28T13:44:28;99040.63;;;15.37;57.86
84781;BME280;75011;50.086;19.886;2024-02-28T13:47:29;99040.38;;;15.34;58.35
84781;BME280;75011;50.086;19.886;2024-02-28T13:50:29;99037.38;;;15.40;57.83
84781;BME280;75011;50.086;19.886;2024-02-28T13:53:30;99030.88;;;15.36;57.95
84781;BME280;75011;50.086;19.886;2024-02-28T13:56:30;99041.19;;;15.34;57.83
84781;BME280;75011;50.086;19.886;2024-02-28T13:59:32;99036.06;;;15.33;58.18
84781;BME280;75011;50.086;19.886;2024-02-28T14:02:33;99037.06;;;15.42;58.09
84781;BME280;75011;50.086;19.886;2024-02-28T14:05:33;99034.94;;;15.34;57.86
84781;BME280;75011;50.086;19.886;2024-02-28T14:08:34;99038.53;;;15.24;58.20
84781;BME280;75011;50.086;19.886;2024-02-28T14:11:34;99043.53;;;15.07;59.37
84781;BME280;75011;50.086;19.886;2024-02-28T14:14:36;99043.63;;;14.92;59.37
84781;BME280;75011;50.086;19.886;2024-02-28T14:17:37;99050.44;;;14.84;59.73
84781;BME280;75011;50.086;19.886;2024-02-28T14:20:38;99041.69;;;14.92;59.48
84781;BME280;75011;50.086;19.886;2024-02-28T14:23:38;99046.09;;;14.83;59.05
84781;BME280;75011;50.086;19.886;2024-02-28T14:26:39;99051.03;;;14.71;59.35
84781;BME280;75011;50.086;19.886;2024-02-28T14:29:40;99051.84;;;14.62;60.63
84781;BME280;75011;50.086;19.886;2024-02-28T14:32:43;99048.94;;;14.48;60.30
84781;BME280;75011;50.086;19.886;2024-02-28T14:35:43;99049.19;;;14.46;60.40
84781;BME280;75011;50.086;19.886;2024-02-28T14:38:44;99058.13;;;14.42;61.04
84781;BME280;75011;50.086;19.886;2024-02-28T14:41:44;99054.91;;;14.30;61.74
84781;BME280;75011;50.086;19.886;2024-02-28T14:44:46;99060.59;;;14.23;62.00
84781;BME280;75011;50.086;19.886;2024-02-28T14:47:47;99061.16;;;14.20;62.54
84781;BME280;75011;50.086;19.886;2024-02-28T14:50:47;99071.16;;;14.15;62.27
84781;BME280;75011;50.086;19.886;2024-02-28T14:53:48;99071.41;;;14.08;63.48
84781;BME280;75011;50.086;19.886;2024-02-28T14:56:48;99080.06;;;13.95;63.97
84781;BME280;75011;50.086;19.886;2024-02-28T14:59:50;99084.13;;;13.82;63.77
84781;BME280;75011;50.086;19.886;2024-02-28T15:02:51;99076.59;;;13.69;64.05
84781;BME280;75011;50.086;19.886;2024-02-28T15:05:51;99084.69;;;13.64;64.81
84781;BME280;75011;50.086;19.886;2024-02-28T15:08:52;99087.13;;;13.61;65.10
84781;BME280;75011;50.086;19.886;2024-02-28T15:11:52;99094.13;;;13.57;65.45
84781;BME280;75011;50.086;19.886;2024-02-28T15:14:54;99086.81;;;13.52;64.86
84781;BME280;75011;50.086;19.886;2024-02-28T15:17:54;99095.47;;;13.49;65.62
84781;BME280;75011;50.086;19.886;2024-02-28T15:20:55;99098.72;;;13.46;64.66
84781;BME280;75011;50.086;19.886;2024-02-28T15:23:55;99103.28;;;13.41;65.18
84781;BME280;75011;50.086;19.886;2024-02-28T15:26:56;99107.03;;;13.35;65.48
84781;BME280;75011;50.086;19.886;2024-02-28T15:29:58;99103.00;;;13.32;66.57
84781;BME280;75011;50.086;19.886;2024-02-28T15:32:58;99110.25;;;13.27;65.74
84781;BME280;75011;50.086;19.886;2024-02-28T15:35:59;99115.94;;;13.20;66.79
84781;BME280;75011;50.086;19.886;2024-02-28T15:38:59;99114.81;;;13.11;66.51
84781;BME280;75011;50.086;19.886;2024-02-28T15:42:00;99105.56;;;12.97;67.62
84781;BME280;75011;50.086;19.886;2024-02-28T15:45:02;99106.34;;;12.87;68.94
84781;BME280;75011;50.086;19.886;2024-02-28T15:48:03;99103.88;;;12.81;68.23